sensor_id;sensor_type;location;lat;lon;timestamp;P1;durP1;ratioP1;P2;durP2;ratioP2
78752;SDS011;68072;51.688;7.842;2023-02-26T00:00:26;3.47;;;1.75;;
78752;SDS011;68072;51.688;7.842;2023-02-26T00:02:51;4.32;;;1.70;;
78752;SDS011;68072;51.688;7.842;2023-02-26T00:05:17;5.60;;;1.90;;
78752;SDS011;68072;51.688;7.842;2023-02-26T00:07:42;4.30;;;1.55;;
78752;SDS011;68072;51.688;7.842;2023-02-26T00:10:08;3.72;;;1.83;;
78752;SDS011;68072;51.688;7.842;2023-02-26T00:12:36;7.72;;;1.73;;
78752;SDS011;68072;51.688;7.842;2023-02-26T00:15:02;4.38;;;1.65;;
78752;SDS011;68072;51.688;7.842;2023-02-26T00:20:15;3.67;;;1.75;;
78752;SDS011;68072;51.688;7.842;2023-02-26T00:22:41;4.22;;;1.70;;
78752;SDS011;68072;51.688;7.842;2023-02-26T00:25:07;5.00;;;1.90;;
78752;SDS011;68072;51.688;7.842;2023-02-26T00:27:33;4.25;;;1.77;;
78752;SDS011;68072;51.688;7.842;2023-02-26T00:29:59;3.60;;;1.50;;
78752;SDS011;68072;51.688;7.842;2023-02-26T00:32:25;5.07;;;1.67;;
78752;SDS011;68072;51.688;7.842;2023-02-26T00:34:51;2.33;;;1.42;;
78752;SDS011;68072;51.688;7.842;2023-02-26T00:38:17;2.85;;;1.48;;
78752;SDS011;68072;51.688;7.842;2023-02-26T00:40:28;1.42;;;1.30;;
78752;SDS011;68072;51.688;7.842;2023-02-26T00:43:00;2.42;;;1.63;;
78752;SDS011;68072;51.688;7.842;2023-02-26T00:45:27;1.40;;;1.30;;
78752;SDS011;68072;51.688;7.842;2023-02-26T00:50:59;4.38;;;1.42;;
78752;SDS011;68072;51.688;7.842;2023-02-26T00:53:33;3.63;;;1.50;;
78752;SDS011;68072;51.688;7.842;2023-02-26T00:56:01;4.53;;;1.45;;
78752;SDS011;68072;51.688;7.842;2023-02-26T00:58:27;3.03;;;1.60;;
78752;SDS011;68072;51.688;7.842;2023-02-26T01:00:53;1.98;;;1.10;;
78752;SDS011;68072;51.688;7.842;2023-02-26T01:03:18;6.15;;;1.73;;
78752;SDS011;68072;51.688;7.842;2023-02-26T01:05:44;2.55;;;1.20;;
78752;SDS011;68072;51.688;7.842;2023-02-26T01:08:23;1.88;;;1.42;;
78752;SDS011;68072;51.688;7.842;2023-02-26T01:10:55;2.67;;;1.45;;
78752;SDS011;68072;51.688;7.842;2023-02-26T01:13:20;2.50;;;1.55;;
78752;SDS011;68072;51.688;7.842;2023-02-26T01:15:47;5.25;;;1.60;;
78752;SDS011;68072;51.688;7.842;2023-02-26T01:18:27;3.00;;;1.50;;
78752;SDS011;68072;51.688;7.842;2023-02-26T01:21:20;6.00;;;2.03;;
78752;SDS011;68072;51.688;7.842;2023-02-26T01:23:49;2.33;;;1.27;;
78752;SDS011;68072;51.688;7.842;2023-02-26T01:26:22;1.58;;;1.40;;
78752;SDS011;68072;51.688;7.842;2023-02-26T01:28:50;4.85;;;1.13;;
78752;SDS011;68072;51.688;7.842;2023-02-26T01:31:21;2.47;;;1.50;;
78752;SDS011;68072;51.688;7.842;2023-02-26T01:33:49;1.55;;;1.23;;
78752;SDS011;68072;51.688;7.842;2023-02-26T01:36:19;4.10;;;1.27;;
78752;SDS011;68072;51.688;7.842;2023-02-26T01:38:56;3.60;;;1.58;;
78752;SDS011;68072;51.688;7.842;2023-02-26T01:41:42;2.83;;;1.23;;
78752;SDS011;68072;51.688;7.842;2023-02-26T01:49:28;1.73;;;1.20;;
78752;SDS011;68072;51.688;7.842;2023-02-26T01:51:58;2.20;;;1.17;;
78752;SDS011;68072;51.688;7.842;2023-02-26T01:54:29;2.00;;;1.50;;
78752;SDS011;68072;51.688;7.842;2023-02-26T01:57:14;2.08;;;1.38;;
78752;SDS011;68072;51.688;7.842;2023-02-26T01:59:42;0.93;;;0.90;;
78752;SDS011;68072;51.688;7.842;2023-02-26T02:02:10;5.13;;;1.40;;
78752;SDS011;68072;51.688;7.842;2023-02-26T02:04:37;2.85;;;1.20;;
78752;SDS011;68072;51.688;7.842;2023-02-26T02:07:04;2.15;;;1.40;;
78752;SDS011;68072;51.688;7.842;2023-02-26T02:09:32;1.17;;;1.10;;
78752;SDS011;68072;51.688;7.842;2023-02-26T02:12:45;2.38;;;1.20;;
78752;SDS011;68072;51.688;7.842;2023-02-26T02:15:33;4.93;;;1.50;;
78752;SDS011;68072;51.688;7.842;2023-02-26T02:20:27;1.33;;;1.20;;
78752;SDS011;68072;51.688;7.842;2023-02-26T02:39:19;1.70;;;1.40;;
78752;SDS011;68072;51.688;7.842;2023-02-26T02:41:53;2.10;;;1.40;;
78752;SDS011;68072;51.688;7.842;2023-02-26T02:44:25;1.60;;;1.40;;
78752;SDS011;68072;51.688;7.842;2023-02-26T02:49:22;7.57;;;1.35;;
78752;SDS011;68072;51.688;7.842;2023-02-26T02:52:01;1.65;;;1.55;;
78752;SDS011;68072;51.688;7.842;2023-02-26T02:54:39;3.13;;;1.40;;
78752;SDS011;68072;51.688;7.842;2023-02-26T02:57:16;4.05;;;1.58;;
78752;SDS011;68072;51.688;7.842;2023-02-26T02:59:53;1.40;;;1.30;;
78752;SDS011;68072;51.688;7.842;2023-02-26T03:05:08;1.88;;;1.40;;
78752;SDS011;68072;51.688;7.842;2023-02-26T03:07:41;3.13;;;1.33;;
78752;SDS011;68072;51.688;7.842;2023-02-26T03:10:10;2.97;;;1.58;;
78752;SDS011;68072;51.688;7.842;2023-02-26T03:12:36;3.35;;;1.88;;
78752;SDS011;68072;51.688;7.842;2023-02-26T03:15:02;4.47;;;1.25;;
78752;SDS011;68072;51.688;7.842;2023-02-26T03:17:32;3.47;;;1.15;;
78752;SDS011;68072;51.688;7.842;2023-02-26T03:28:11;1.75;;;1.25;;
78752;SDS011;68072;51.688;7.842;2023-02-26T03:31:23;7.15;;;2.25;;
78752;SDS011;68072;51.688;7.842;2023-02-26T03:36:28;5.50;;;1.67;;
78752;SDS011;68072;51.688;7.842;2023-02-26T03:39:18;1.42;;;1.25;;
78752;SDS011;68072;51.688;7.842;2023-02-26T03:41:48;3.05;;;1.20;;
78752;SDS011;68072;51.688;7.842;2023-02-26T03:44:24;1.27;;;1.17;;
78752;SDS011;68072;51.688;7.842;2023-02-26T03:46:54;7.40;;;1.50;;
78752;SDS011;68072;51.688;7.842;2023-02-26T03:49:23;3.05;;;1.50;;
78752;SDS011;68072;51.688;7.842;2023-02-26T03:51:51;7.10;;;1.80;;
78752;SDS011;68072;51.688;7.842;2023-02-26T03:54:22;2.83;;;1.30;;
78752;SDS011;68072;51.688;7.842;2023-02-26T03:57:17;1.23;;;1.05;;
78752;SDS011;68072;51.688;7.842;2023-02-26T03:59:43;5.38;;;1.70;;
78752;SDS011;68072;51.688;7.842;2023-02-26T04:02:16;2.78;;;1.13;;
78752;SDS011;68072;51.688;7.842;2023-02-26T04:04:48;2.08;;;1.10;;
78752;SDS011;68072;51.688;7.842;2023-02-26T04:07:18;1.05;;;1.00;;
78752;SDS011;68072;51.688;7.842;2023-02-26T04:09:49;0.73;;;0.73;;
78752;SDS011;68072;51.688;7.842;2023-02-26T04:12:19;2.55;;;1.08;;
78752;SDS011;68072;51.688;7.842;2023-02-26T04:14:48;4.30;;;1.50;;
78752;SDS011;68072;51.688;7.842;2023-02-26T04:17:14;3.50;;;1.25;;
78752;SDS011;68072;51.688;7.842;2023-02-26T04:19:39;1.98;;;0.95;;
78752;SDS011;68072;51.688;7.842;2023-02-26T04:22:04;2.83;;;1.13;;
78752;SDS011;68072;51.688;7.842;2023-02-26T04:24:30;4.38;;;0.85;;
78752;SDS011;68072;51.688;7.842;2023-02-26T04:26:55;0.68;;;0.68;;
78752;SDS011;68072;51.688;7.842;2023-02-26T04:29:20;1.27;;;1.23;;
78752;SDS011;68072;51.688;7.842;2023-02-26T04:31:46;1.40;;;1.30;;
78752;SDS011;68072;51.688;7.842;2023-02-26T04:34:11;1.67;;;1.23;;
78752;SDS011;68072;51.688;7.842;2023-02-26T04:36:37;2.00;;;1.20;;
78752;SDS011;68072;51.688;7.842;2023-02-26T04:39:02;6.38;;;1.52;;
78752;SDS011;68072;51.688;7.842;2023-02-26T04:41:28;1.40;;;1.30;;
78752;SDS011;68072;51.688;7.842;2023-02-26T04:43:53;2.15;;;1.58;;
78752;SDS011;68072;51.688;7.842;2023-02-26T04:46:18;1.80;;;1.10;;
78752;SDS011;68072;51.688;7.842;2023-02-26T04:48:44;1.92;;;1.15;;
78752;SDS011;68072;51.688;7.842;2023-02-26T04:51:09;5.13;;;1.20;;
78752;SDS011;68072;51.688;7.842;2023-02-26T04:53:35;3.08;;;1.17;;
78752;SDS011;68072;51.688;7.842;2023-02-26T04:56:00;4.63;;;1.52;;
78752;SDS011;68072;51.688;7.842;2023-02-26T04:58:26;2.30;;;1.20;;
78752;SDS011;68072;51.688;7.842;2023-02-26T05:00:51;1.35;;;1.27;;
78752;SDS011;68072;51.688;7.842;2023-02-26T05:03:20;1.20;;;1.05;;
78752;SDS011;68072;51.688;7.842;2023-02-26T05:05:46;2.40;;;1.17;;
78752;SDS011;68072;51.688;7.842;2023-02-26T05:08:11;3.33;;;1.40;;
78752;SDS011;68072;51.688;7.842;2023-02-26T05:10:37;2.28;;;1.15;;
78752;SDS011;68072;51.688;7.842;2023-02-26T05:13:03;1.90;;;1.38;;
78752;SDS011;68072;51.688;7.842;2023-02-26T05:15:28;1.88;;;1.42;;
78752;SDS011;68072;51.688;7.842;2023-02-26T05:17:54;1.75;;;1.08;;
78752;SDS011;68072;51.688;7.842;2023-02-26T05:20:20;3.78;;;1.25;;
78752;SDS011;68072;51.688;7.842;2023-02-26T05:22:45;3.00;;;1.70;;
78752;SDS011;68072;51.688;7.842;2023-02-26T05:25:11;1.98;;;1.33;;
78752;SDS011;68072;51.688;7.842;2023-02-26T05:27:37;1.42;;;1.30;;
78752;SDS011;68072;51.688;7.842;2023-02-26T05:30:04;2.53;;;1.27;;
78752;SDS011;68072;51.688;7.842;2023-02-26T05:32:30;3.42;;;1.05;;
78752;SDS011;68072;51.688;7.842;2023-02-26T05:34:56;2.80;;;1.23;;
78752;SDS011;68072;51.688;7.842;2023-02-26T05:37:21;1.30;;;1.20;;
78752;SDS011;68072;51.688;7.842;2023-02-26T05:39:46;3.13;;;1.60;;
78752;SDS011;68072;51.688;7.842;2023-02-26T05:42:12;2.55;;;1.17;;
78752;SDS011;68072;51.688;7.842;2023-02-26T05:44:37;4.28;;;1.15;;
78752;SDS011;68072;51.688;7.842;2023-02-26T05:47:02;2.45;;;1.42;;
78752;SDS011;68072;51.688;7.842;2023-02-26T05:49:28;4.13;;;1.40;;
78752;SDS011;68072;51.688;7.842;2023-02-26T05:51:53;2.25;;;1.70;;
78752;SDS011;68072;51.688;7.842;2023-02-26T05:54:19;4.75;;;1.88;;
78752;SDS011;68072;51.688;7.842;2023-02-26T05:56:44;3.72;;;1.40;;
78752;SDS011;68072;51.688;7.842;2023-02-26T05:59:10;0.88;;;0.88;;
78752;SDS011;68072;51.688;7.842;2023-02-26T06:01:35;4.70;;;0.90;;
78752;SDS011;68072;51.688;7.842;2023-02-26T06:04:04;4.25;;;1.40;;
78752;SDS011;68072;51.688;7.842;2023-02-26T06:06:30;1.77;;;1.50;;
78752;SDS011;68072;51.688;7.842;2023-02-26T06:08:56;2.55;;;1.25;;
78752;SDS011;68072;51.688;7.842;2023-02-26T06:11:21;2.40;;;1.08;;
78752;SDS011;68072;51.688;7.842;2023-02-26T06:13:46;1.30;;;1.20;;
78752;SDS011;68072;51.688;7.842;2023-02-26T06:16:12;1.85;;;1.20;;
78752;SDS011;68072;51.688;7.842;2023-02-26T06:18:37;3.88;;;1.55;;
78752;SDS011;68072;51.688;7.842;2023-02-26T06:21:03;2.70;;;1.75;;
78752;SDS011;68072;51.688;7.842;2023-02-26T06:23:29;1.83;;;1.50;;
78752;SDS011;68072;51.688;7.842;2023-02-26T06:25:54;3.17;;;1.40;;
78752;SDS011;68072;51.688;7.842;2023-02-26T06:28:19;1.38;;;0.77;;
78752;SDS011;68072;51.688;7.842;2023-02-26T06:30:45;5.40;;;1.58;;
78752;SDS011;68072;51.688;7.842;2023-02-26T06:33:11;5.13;;;1.63;;
78752;SDS011;68072;51.688;7.842;2023-02-26T06:35:36;1.77;;;1.67;;
78752;SDS011;68072;51.688;7.842;2023-02-26T06:38:02;6.75;;;1.30;;
78752;SDS011;68072;51.688;7.842;2023-02-26T06:40:27;8.13;;;1.45;;
78752;SDS011;68072;51.688;7.842;2023-02-26T06:42:54;1.15;;;1.08;;
78752;SDS011;68072;51.688;7.842;2023-02-26T06:45:20;3.35;;;1.83;;
78752;SDS011;68072;51.688;7.842;2023-02-26T06:47:45;1.20;;;1.10;;
78752;SDS011;68072;51.688;7.842;2023-02-26T06:50:11;1.60;;;1.40;;
78752;SDS011;68072;51.688;7.842;2023-02-26T06:52:36;4.80;;;1.38;;
78752;SDS011;68072;51.688;7.842;2023-02-26T06:55:02;6.15;;;1.65;;
78752;SDS011;68072;51.688;7.842;2023-02-26T06:57:28;1.15;;;1.15;;
78752;SDS011;68072;51.688;7.842;2023-02-26T06:59:54;5.50;;;1.42;;
78752;SDS011;68072;51.688;7.842;2023-02-26T07:02:20;3.22;;;1.30;;
78752;SDS011;68072;51.688;7.842;2023-02-26T07:04:46;4.80;;;1.70;;
78752;SDS011;68072;51.688;7.842;2023-02-26T07:07:11;2.20;;;1.50;;
78752;SDS011;68072;51.688;7.842;2023-02-26T07:09:37;4.07;;;1.50;;
78752;SDS011;68072;51.688;7.842;2023-02-26T07:12:03;3.97;;;1.42;;
78752;SDS011;68072;51.688;7.842;2023-02-26T07:14:28;1.15;;;1.10;;
78752;SDS011;68072;51.688;7.842;2023-02-26T07:16:54;2.28;;;1.70;;
78752;SDS011;68072;51.688;7.842;2023-02-26T07:19:19;3.20;;;1.42;;
78752;SDS011;68072;51.688;7.842;2023-02-26T07:21:45;1.42;;;1.33;;
78752;SDS011;68072;51.688;7.842;2023-02-26T07:24:12;2.13;;;1.10;;
78752;SDS011;68072;51.688;7.842;2023-02-26T07:26:37;1.98;;;1.48;;
78752;SDS011;68072;51.688;7.842;2023-02-26T07:29:03;3.53;;;1.50;;
78752;SDS011;68072;51.688;7.842;2023-02-26T07:31:29;5.50;;;1.25;;
78752;SDS011;68072;51.688;7.842;2023-02-26T07:33:54;2.67;;;1.17;;
78752;SDS011;68072;51.688;7.842;2023-02-26T07:36:20;2.75;;;1.13;;
78752;SDS011;68072;51.688;7.842;2023-02-26T07:38:45;0.77;;;0.77;;
78752;SDS011;68072;51.688;7.842;2023-02-26T07:41:10;3.75;;;1.10;;
78752;SDS011;68072;51.688;7.842;2023-02-26T07:43:36;4.03;;;1.52;;
78752;SDS011;68072;51.688;7.842;2023-02-26T07:46:01;1.95;;;1.48;;
78752;SDS011;68072;51.688;7.842;2023-02-26T07:48:27;2.83;;;1.33;;
78752;SDS011;68072;51.688;7.842;2023-02-26T07:50:53;1.38;;;1.27;;
78752;SDS011;68072;51.688;7.842;2023-02-26T07:53:19;1.30;;;1.20;;
78752;SDS011;68072;51.688;7.842;2023-02-26T07:55:44;5.80;;;1.50;;
78752;SDS011;68072;51.688;7.842;2023-02-26T07:58:10;2.05;;;1.38;;
78752;SDS011;68072;51.688;7.842;2023-02-26T08:00:35;2.92;;;1.30;;
78752;SDS011;68072;51.688;7.842;2023-02-26T08:03:00;1.67;;;1.08;;
78752;SDS011;68072;51.688;7.842;2023-02-26T08:05:26;5.38;;;1.55;;
78752;SDS011;68072;51.688;7.842;2023-02-26T08:07:51;3.03;;;1.55;;
78752;SDS011;68072;51.688;7.842;2023-02-26T08:10:17;2.35;;;1.27;;
78752;SDS011;68072;51.688;7.842;2023-02-26T08:12:42;2.35;;;1.42;;
78752;SDS011;68072;51.688;7.842;2023-02-26T08:15:08;1.42;;;1.33;;
78752;SDS011;68072;51.688;7.842;2023-02-26T08:17:34;2.35;;;1.23;;
78752;SDS011;68072;51.688;7.842;2023-02-26T08:19:59;1.88;;;1.25;;
78752;SDS011;68072;51.688;7.842;2023-02-26T08:22:25;4.97;;;1.65;;
78752;SDS011;68072;51.688;7.842;2023-02-26T08:24:50;2.17;;;1.38;;
78752;SDS011;68072;51.688;7.842;2023-02-26T08:27:16;4.75;;;1.42;;
78752;SDS011;68072;51.688;7.842;2023-02-26T08:29:41;3.13;;;1.27;;
78752;SDS011;68072;51.688;7.842;2023-02-26T08:32:08;4.63;;;1.55;;
78752;SDS011;68072;51.688;7.842;2023-02-26T08:34:33;3.55;;;1.63;;
78752;SDS011;68072;51.688;7.842;2023-02-26T08:36:59;3.60;;;1.73;;
78752;SDS011;68072;51.688;7.842;2023-02-26T08:39:24;1.55;;;1.20;;
78752;SDS011;68072;51.688;7.842;2023-02-26T08:41:49;2.15;;;1.20;;
78752;SDS011;68072;51.688;7.842;2023-02-26T08:44:15;2.63;;;1.52;;
78752;SDS011;68072;51.688;7.842;2023-02-26T08:46:40;3.88;;;1.35;;
78752;SDS011;68072;51.688;7.842;2023-02-26T08:49:05;0.88;;;0.88;;
78752;SDS011;68072;51.688;7.842;2023-02-26T08:51:31;3.88;;;1.50;;
78752;SDS011;68072;51.688;7.842;2023-02-26T08:53:57;2.80;;;0.95;;
78752;SDS011;68072;51.688;7.842;2023-02-26T08:56:22;2.85;;;1.23;;
78752;SDS011;68072;51.688;7.842;2023-02-26T08:58:48;5.00;;;1.45;;
78752;SDS011;68072;51.688;7.842;2023-02-26T09:01:13;1.67;;;1.00;;
78752;SDS011;68072;51.688;7.842;2023-02-26T09:03:39;5.18;;;1.77;;
78752;SDS011;68072;51.688;7.842;2023-02-26T09:06:04;2.70;;;1.42;;
78752;SDS011;68072;51.688;7.842;2023-02-26T09:08:30;2.38;;;1.35;;
78752;SDS011;68072;51.688;7.842;2023-02-26T09:11:02;1.48;;;1.30;;
78752;SDS011;68072;51.688;7.842;2023-02-26T09:13:28;1.17;;;1.10;;
78752;SDS011;68072;51.688;7.842;2023-02-26T09:15:54;3.92;;;1.00;;
78752;SDS011;68072;51.688;7.842;2023-02-26T09:18:20;4.25;;;1.60;;
78752;SDS011;68072;51.688;7.842;2023-02-26T09:20:45;2.20;;;1.08;;
78752;SDS011;68072;51.688;7.842;2023-02-26T09:23:11;2.80;;;1.42;;
78752;SDS011;68072;51.688;7.842;2023-02-26T09:25:37;1.45;;;0.90;;
78752;SDS011;68072;51.688;7.842;2023-02-26T09:28:02;1.23;;;1.02;;
78752;SDS011;68072;51.688;7.842;2023-02-26T09:30:28;1.80;;;1.00;;
78752;SDS011;68072;51.688;7.842;2023-02-26T09:32:54;4.32;;;1.40;;
78752;SDS011;68072;51.688;7.842;2023-02-26T09:35:20;1.50;;;0.80;;
78752;SDS011;68072;51.688;7.842;2023-02-26T09:37:46;0.50;;;0.50;;
78752;SDS011;68072;51.688;7.842;2023-02-26T09:43:07;2.97;;;1.17;;
78752;SDS011;68072;51.688;7.842;2023-02-26T09:45:57;2.08;;;1.30;;
78752;SDS011;68072;51.688;7.842;2023-02-26T09:48:29;0.60;;;0.57;;
78752;SDS011;68072;51.688;7.842;2023-02-26T09:50:55;0.80;;;0.80;;
78752;SDS011;68072;51.688;7.842;2023-02-26T09:53:29;0.68;;;0.63;;
78752;SDS011;68072;51.688;7.842;2023-02-26T09:56:04;3.38;;;1.15;;
78752;SDS011;68072;51.688;7.842;2023-02-26T09:58:33;2.85;;;0.85;;
78752;SDS011;68072;51.688;7.842;2023-02-26T10:01:25;2.17;;;0.90;;
78752;SDS011;68072;51.688;7.842;2023-02-26T10:04:14;6.40;;;1.13;;
78752;SDS011;68072;51.688;7.842;2023-02-26T10:09:53;4.63;;;1.55;;
78752;SDS011;68072;51.688;7.842;2023-02-26T10:12:53;1.33;;;0.77;;
78752;SDS011;68072;51.688;7.842;2023-02-26T10:15:23;1.33;;;0.90;;
78752;SDS011;68072;51.688;7.842;2023-02-26T10:21:10;2.75;;;1.00;;
78752;SDS011;68072;51.688;7.842;2023-02-26T10:23:42;1.52;;;1.20;;
78752;SDS011;68072;51.688;7.842;2023-02-26T10:26:17;0.88;;;0.60;;
78752;SDS011;68072;51.688;7.842;2023-02-26T10:31:23;0.60;;;0.60;;
78752;SDS011;68072;51.688;7.842;2023-02-26T10:36:51;4.60;;;1.00;;
78752;SDS011;68072;51.688;7.842;2023-02-26T10:41:55;1.08;;;0.70;;
78752;SDS011;68072;51.688;7.842;2023-02-26T10:44:27;0.50;;;0.50;;
78752;SDS011;68072;51.688;7.842;2023-02-26T10:47:04;4.25;;;0.80;;
78752;SDS011;68072;51.688;7.842;2023-02-26T10:52:14;1.65;;;0.55;;
78752;SDS011;68072;51.688;7.842;2023-02-26T10:54:47;0.40;;;0.40;;
78752;SDS011;68072;51.688;7.842;2023-02-26T10:57:22;3.05;;;0.95;;
78752;SDS011;68072;51.688;7.842;2023-02-26T10:59:49;0.28;;;0.28;;
78752;SDS011;68072;51.688;7.842;2023-02-26T11:02:23;1.30;;;0.43;;
78752;SDS011;68072;51.688;7.842;2023-02-26T11:04:59;1.98;;;0.80;;
78752;SDS011;68072;51.688;7.842;2023-02-26T11:07:25;1.65;;;0.93;;
78752;SDS011;68072;51.688;7.842;2023-02-26T11:12:17;1.00;;;0.65;;
78752;SDS011;68072;51.688;7.842;2023-02-26T11:14:46;1.70;;;0.70;;
78752;SDS011;68072;51.688;7.842;2023-02-26T11:17:19;2.47;;;0.63;;
78752;SDS011;68072;51.688;7.842;2023-02-26T11:19:49;1.13;;;0.60;;
78752;SDS011;68072;51.688;7.842;2023-02-26T11:22:17;0.50;;;0.50;;
78752;SDS011;68072;51.688;7.842;2023-02-26T11:24:47;0.73;;;0.73;;
78752;SDS011;68072;51.688;7.842;2023-02-26T11:27:14;0.80;;;0.55;;
78752;SDS011;68072;51.688;7.842;2023-02-26T11:29:45;0.60;;;0.60;;
78752;SDS011;68072;51.688;7.842;2023-02-26T11:32:16;0.20;;;0.20;;
78752;SDS011;68072;51.688;7.842;2023-02-26T11:34:47;1.27;;;0.60;;
78752;SDS011;68072;51.688;7.842;2023-02-26T11:37:16;0.73;;;0.43;;
78752;SDS011;68072;51.688;7.842;2023-02-26T11:39:59;3.65;;;0.57;;
78752;SDS011;68072;51.688;7.842;2023-02-26T11:42:33;0.82;;;0.80;;
78752;SDS011;68072;51.688;7.842;2023-02-26T11:44:59;1.48;;;0.63;;
78752;SDS011;68072;51.688;7.842;2023-02-26T11:47:26;0.50;;;0.50;;
78752;SDS011;68072;51.688;7.842;2023-02-26T11:49:54;1.08;;;0.50;;
78752;SDS011;68072;51.688;7.842;2023-02-26T11:52:43;2.10;;;0.52;;
78752;SDS011;68072;51.688;7.842;2023-02-26T11:55:17;0.40;;;0.40;;
78752;SDS011;68072;51.688;7.842;2023-02-26T11:57:44;1.40;;;0.88;;
78752;SDS011;68072;51.688;7.842;2023-02-26T12:00:17;1.75;;;0.70;;
78752;SDS011;68072;51.688;7.842;2023-02-26T12:02:44;2.92;;;0.80;;
78752;SDS011;68072;51.688;7.842;2023-02-26T12:05:10;0.93;;;0.52;;
78752;SDS011;68072;51.688;7.842;2023-02-26T12:07:39;2.08;;;0.75;;
78752;SDS011;68072;51.688;7.842;2023-02-26T12:10:12;1.67;;;1.00;;
78752;SDS011;68072;51.688;7.842;2023-02-26T12:13:13;1.60;;;0.65;;
78752;SDS011;68072;51.688;7.842;2023-02-26T12:15:52;0.40;;;0.40;;
78752;SDS011;68072;51.688;7.842;2023-02-26T12:18:28;3.30;;;0.43;;
78752;SDS011;68072;51.688;7.842;2023-02-26T12:26:33;1.17;;;0.60;;
78752;SDS011;68072;51.688;7.842;2023-02-26T12:29:09;2.22;;;0.60;;
78752;SDS011;68072;51.688;7.842;2023-02-26T13:03:49;0.77;;;0.70;;
78752;SDS011;68072;51.688;7.842;2023-02-26T13:09:02;0.70;;;0.70;;
78752;SDS011;68072;51.688;7.842;2023-02-26T13:11:59;1.35;;;0.80;;
78752;SDS011;68072;51.688;7.842;2023-02-26T13:14:50;1.88;;;0.70;;
78752;SDS011;68072;51.688;7.842;2023-02-26T13:20:26;1.40;;;0.68;;
78752;SDS011;68072;51.688;7.842;2023-02-26T13:23:00;0.35;;;0.35;;
78752;SDS011;68072;51.688;7.842;2023-02-26T13:25:47;1.42;;;0.80;;
78752;SDS011;68072;51.688;7.842;2023-02-26T13:31:07;1.13;;;0.70;;
78752;SDS011;68072;51.688;7.842;2023-02-26T13:33:35;2.47;;;0.93;;
78752;SDS011;68072;51.688;7.842;2023-02-26T13:36:01;2.33;;;0.85;;
78752;SDS011;68072;51.688;7.842;2023-02-26T13:41:49;0.77;;;0.55;;
78752;SDS011;68072;51.688;7.842;2023-02-26T13:46:49;1.88;;;0.63;;
78752;SDS011;68072;51.688;7.842;2023-02-26T13:49:29;1.05;;;0.70;;
78752;SDS011;68072;51.688;7.842;2023-02-26T13:52:00;0.57;;;0.57;;
78752;SDS011;68072;51.688;7.842;2023-02-26T13:54:32;1.77;;;0.77;;
78752;SDS011;68072;51.688;7.842;2023-02-26T14:04:52;3.00;;;0.98;;
78752;SDS011;68072;51.688;7.842;2023-02-26T14:10:22;1.52;;;1.10;;
78752;SDS011;68072;51.688;7.842;2023-02-26T14:18:24;2.85;;;1.02;;
78752;SDS011;68072;51.688;7.842;2023-02-26T14:21:45;0.70;;;0.55;;
78752;SDS011;68072;51.688;7.842;2023-02-26T14:24:00;4.13;;;1.00;;
78752;SDS011;68072;51.688;7.842;2023-02-26T14:26:27;0.80;;;0.80;;
78752;SDS011;68072;51.688;7.842;2023-02-26T14:31:23;0.70;;;0.52;;
78752;SDS011;68072;51.688;7.842;2023-02-26T14:33:58;0.45;;;0.45;;
78752;SDS011;68072;51.688;7.842;2023-02-26T14:38:58;1.00;;;0.90;;
78752;SDS011;68072;51.688;7.842;2023-02-26T14:41:27;1.27;;;0.75;;
78752;SDS011;68072;51.688;7.842;2023-02-26T14:44:04;1.33;;;0.77;;
78752;SDS011;68072;51.688;7.842;2023-02-26T14:46:39;3.22;;;1.13;;
78752;SDS011;68072;51.688;7.842;2023-02-26T14:49:08;1.35;;;0.95;;
78752;SDS011;68072;51.688;7.842;2023-02-26T14:51:45;1.42;;;1.08;;
78752;SDS011;68072;51.688;7.842;2023-02-26T14:54:28;1.92;;;0.75;;
78752;SDS011;68072;51.688;7.842;2023-02-26T14:57:02;1.13;;;0.95;;
78752;SDS011;68072;51.688;7.842;2023-02-26T15:24:12;0.80;;;0.80;;
78752;SDS011;68072;51.688;7.842;2023-02-26T15:26:44;1.10;;;0.65;;
78752;SDS011;68072;51.688;7.842;2023-02-26T15:29:16;1.02;;;0.95;;
78752;SDS011;68072;51.688;7.842;2023-02-26T15:31:49;1.80;;;0.80;;
78752;SDS011;68072;51.688;7.842;2023-02-26T15:34:18;1.45;;;0.75;;
78752;SDS011;68072;51.688;7.842;2023-02-26T15:36:44;2.45;;;0.90;;
78752;SDS011;68072;51.688;7.842;2023-02-26T15:39:12;0.30;;;0.30;;
78752;SDS011;68072;51.688;7.842;2023-02-26T15:41:39;1.50;;;0.80;;
78752;SDS011;68072;51.688;7.842;2023-02-26T15:44:06;1.52;;;1.00;;
78752;SDS011;68072;51.688;7.842;2023-02-26T15:46:36;0.60;;;0.60;;
78752;SDS011;68072;51.688;7.842;2023-02-26T15:49:07;0.85;;;0.80;;
78752;SDS011;68072;51.688;7.842;2023-02-26T15:51:35;1.85;;;1.00;;
78752;SDS011;68072;51.688;7.842;2023-02-26T15:54:01;1.45;;;0.90;;
78752;SDS011;68072;51.688;7.842;2023-02-26T15:56:28;4.00;;;0.60;;
78752;SDS011;68072;51.688;7.842;2023-02-26T15:59:15;0.60;;;0.60;;
78752;SDS011;68072;51.688;7.842;2023-02-26T16:01:43;2.10;;;0.95;;
78752;SDS011;68072;51.688;7.842;2023-02-26T16:04:12;1.98;;;0.88;;
78752;SDS011;68072;51.688;7.842;2023-02-26T16:06:40;0.90;;;0.70;;
78752;SDS011;68072;51.688;7.842;2023-02-26T16:09:14;0.82;;;0.80;;
78752;SDS011;68072;51.688;7.842;2023-02-26T16:11:42;0.80;;;0.80;;
78752;SDS011;68072;51.688;7.842;2023-02-26T16:14:12;0.82;;;0.82;;
78752;SDS011;68072;51.688;7.842;2023-02-26T16:16:46;2.40;;;0.73;;
78752;SDS011;68072;51.688;7.842;2023-02-26T16:19:17;3.35;;;0.88;;
78752;SDS011;68072;51.688;7.842;2023-02-26T16:21:45;1.10;;;0.93;;
78752;SDS011;68072;51.688;7.842;2023-02-26T16:24:14;0.50;;;0.50;;
78752;SDS011;68072;51.688;7.842;2023-02-26T16:26:43;4.55;;;1.02;;
78752;SDS011;68072;51.688;7.842;2023-02-26T16:31:39;1.27;;;0.68;;
78752;SDS011;68072;51.688;7.842;2023-02-26T16:34:22;0.57;;;0.50;;
78752;SDS011;68072;51.688;7.842;2023-02-26T16:39:54;1.20;;;1.10;;
78752;SDS011;68072;51.688;7.842;2023-02-26T16:42:31;0.55;;;0.52;;
78752;SDS011;68072;51.688;7.842;2023-02-26T16:48:02;3.03;;;0.88;;
78752;SDS011;68072;51.688;7.842;2023-02-26T16:50:52;0.77;;;0.65;;
78752;SDS011;68072;51.688;7.842;2023-02-26T16:53:21;1.60;;;0.70;;
78752;SDS011;68072;51.688;7.842;2023-02-26T16:55:50;0.90;;;0.90;;
78752;SDS011;68072;51.688;7.842;2023-02-26T16:58:16;1.38;;;0.82;;
78752;SDS011;68072;51.688;7.842;2023-02-26T17:00:43;4.45;;;1.10;;
78752;SDS011;68072;51.688;7.842;2023-02-26T17:08:59;1.38;;;0.90;;
78752;SDS011;68072;51.688;7.842;2023-02-26T17:11:22;1.88;;;1.23;;
78752;SDS011;68072;51.688;7.842;2023-02-26T17:13:56;0.90;;;0.90;;
78752;SDS011;68072;51.688;7.842;2023-02-26T17:16:32;2.42;;;1.20;;
78752;SDS011;68072;51.688;7.842;2023-02-26T17:18:58;1.33;;;0.60;;
78752;SDS011;68072;51.688;7.842;2023-02-26T17:21:24;0.60;;;0.60;;
78752;SDS011;68072;51.688;7.842;2023-02-26T17:23:50;1.92;;;1.10;;
78752;SDS011;68072;51.688;7.842;2023-02-26T17:26:15;1.05;;;0.88;;
78752;SDS011;68072;51.688;7.842;2023-02-26T17:28:41;1.52;;;1.02;;
78752;SDS011;68072;51.688;7.842;2023-02-26T17:31:07;1.98;;;0.90;;
78752;SDS011;68072;51.688;7.842;2023-02-26T17:33:33;1.15;;;1.00;;
78752;SDS011;68072;51.688;7.842;2023-02-26T17:35:59;0.80;;;0.80;;
78752;SDS011;68072;51.688;7.842;2023-02-26T17:38:26;1.00;;;1.00;;
78752;SDS011;68072;51.688;7.842;2023-02-26T17:40:52;1.02;;;0.95;;
78752;SDS011;68072;51.688;7.842;2023-02-26T17:43:20;1.52;;;1.20;;
78752;SDS011;68072;51.688;7.842;2023-02-26T17:45:46;1.00;;;0.80;;
78752;SDS011;68072;51.688;7.842;2023-02-26T17:48:12;1.20;;;1.10;;
78752;SDS011;68072;51.688;7.842;2023-02-26T17:53:21;1.45;;;1.17;;
78752;SDS011;68072;51.688;7.842;2023-02-26T17:55:49;5.97;;;1.27;;
78752;SDS011;68072;51.688;7.842;2023-02-26T17:58:27;1.30;;;1.20;;
78752;SDS011;68072;51.688;7.842;2023-02-26T18:00:58;3.78;;;1.20;;
78752;SDS011;68072;51.688;7.842;2023-02-26T18:03:24;1.48;;;1.30;;
78752;SDS011;68072;51.688;7.842;2023-02-26T18:05:51;2.45;;;1.30;;